Terminal Aerodrome Forecast
Issued by NWS

Home | Current Version | Previous Version | Text Only | Print | Product List | Glossary On
Versions: 1 2 3 4 5 6 7 8 9 10 11 12 13 14 15 16 17 18 19
000
FTUS46 KPQR 211124
TAFONP
TAF
KONP 211124Z 2112/2212 16010KT P6SM VCSH SCT015 BKN040
     FM211400 16014G21KT P6SM -SHRA SCT012 OVC035
     FM211600 17016G24KT P6SM -RA SCT012 OVC030
     FM212300 20020G28KT 4SM -RA BKN015 OVC030
     FM220300 18013KT P6SM BKN250=

USA.gov is the U.S. government's official web portal to all federal, state and local government web resources and services.